createdAt,value
2023-05-19T00:00:37.254Z,1.52
2023-05-19T00:05:46.213Z,1.20
2023-05-19T00:10:49.222Z,1.02
2023-05-19T00:15:52.163Z,1.05
2023-05-19T00:20:54.733Z,1.60
2023-05-19T00:25:57.282Z,1.23
2023-05-19T00:31:01.158Z,1.20
2023-05-19T00:36:04.572Z,1.48
2023-05-19T00:41:07.922Z,1.05
2023-05-19T00:46:11.138Z,1.17
2023-05-19T00:51:16.993Z,1.30
2023-05-19T00:56:21.033Z,0.90
2023-05-19T01:01:23.870Z,1.20
2023-05-19T01:06:27.800Z,1.10
2023-05-19T01:11:30.303Z,1.45
2023-05-19T01:16:43.520Z,1.17
2023-05-19T01:22:06.914Z,1.38
2023-05-19T01:27:36.439Z,1.40
2023-05-19T01:32:42.495Z,1.10
2023-05-19T01:37:45.513Z,1.30
2023-05-19T01:42:49.561Z,1.70
2023-05-19T01:47:56.248Z,1.60
2023-05-19T01:52:59.240Z,1.08
2023-05-19T01:58:19.974Z,1.52
2023-05-19T02:03:53.028Z,1.95
2023-05-19T02:09:02.877Z,1.55
2023-05-19T02:14:37.317Z,1.77
2023-05-19T02:19:40.370Z,1.27
2023-05-19T02:24:44.431Z,0.95
2023-05-19T02:29:46.992Z,1.15
2023-05-19T02:34:49.627Z,1.05
2023-05-19T02:39:52.204Z,1.10
2023-05-19T02:44:55.523Z,1.45
2023-05-19T02:49:58.074Z,1.48
2023-05-19T02:55:00.895Z,2.08
2023-05-19T03:00:03.829Z,7.55
2023-05-19T03:05:07.934Z,33.15
2023-05-19T03:10:10.778Z,21.00
2023-05-19T03:15:15.076Z,8.60
2023-05-19T03:20:18.199Z,7.80
2023-05-19T03:25:20.808Z,10.77
2023-05-19T03:30:23.407Z,10.80
2023-05-19T03:35:40.510Z,9.95
2023-05-19T03:40:44.084Z,9.18
2023-05-19T03:45:47.913Z,4.93
2023-05-19T03:51:10.435Z,3.40
2023-05-19T03:56:14.014Z,2.30
2023-05-19T04:01:17.478Z,1.98
2023-05-19T04:06:20.103Z,1.90
2023-05-19T04:11:22.765Z,1.75
2023-05-19T04:16:25.704Z,1.33
2023-05-19T04:21:28.380Z,1.33
2023-05-19T04:26:34.573Z,1.95
2023-05-19T04:31:37.822Z,1.77
2023-05-19T04:36:42.244Z,1.00
2023-05-19T04:41:45.574Z,1.35
2023-05-19T04:46:50.118Z,1.08
2023-05-19T04:51:55.557Z,0.90
2023-05-19T04:57:02.166Z,1.67
2023-05-19T05:02:07.563Z,1.00
2023-05-19T05:07:12.170Z,1.02
2023-05-19T05:12:17.335Z,1.10
2023-05-19T05:17:22.099Z,0.90
2023-05-19T05:22:25.186Z,0.90
2023-05-19T05:27:28.264Z,0.80
2023-05-19T05:32:31.260Z,0.57
2023-05-19T05:37:38.527Z,0.95
2023-05-19T05:42:41.690Z,0.60
2023-05-19T05:47:44.775Z,0.82
2023-05-19T05:52:48.640Z,0.77
2023-05-19T05:57:53.247Z,0.63
2023-05-19T06:02:57.342Z,0.75
2023-05-19T06:08:01.788Z,0.85
2023-05-19T06:13:04.401Z,1.10
2023-05-19T06:18:07.266Z,0.90
2023-05-19T06:23:09.965Z,0.60
2023-05-19T06:28:12.738Z,0.60
2023-05-19T06:33:15.325Z,0.73
2023-05-19T06:38:19.002Z,0.85
2023-05-19T06:43:21.599Z,0.88
2023-05-19T06:48:30.493Z,0.85
2023-05-19T06:53:35.410Z,0.80
2023-05-19T06:58:43.054Z,1.45
2023-05-19T07:03:47.027Z,0.70
2023-05-19T07:08:51.194Z,0.68
2023-05-19T07:13:54.558Z,0.90
2023-05-19T07:19:02.796Z,1.27
2023-05-19T07:24:05.688Z,0.73
2023-05-19T07:29:08.331Z,0.88
2023-05-19T07:34:11.013Z,0.77
2023-05-19T07:39:13.699Z,0.63
2023-05-19T07:44:16.249Z,0.80
2023-05-19T07:49:18.930Z,0.47
2023-05-19T07:54:21.804Z,1.10
2023-05-19T07:59:24.533Z,1.40
2023-05-19T08:04:27.870Z,0.70
2023-05-19T08:09:30.582Z,0.60
2023-05-19T08:14:34.910Z,0.50
2023-05-19T08:19:37.371Z,0.67
2023-05-19T08:24:42.649Z,0.73
2023-05-19T08:29:45.365Z,0.65
2023-05-19T08:34:47.871Z,1.10
2023-05-19T08:39:50.710Z,0.60
2023-05-19T08:44:53.232Z,0.70
2023-05-19T08:50:07.741Z,0.85
2023-05-19T08:55:26.032Z,0.98
2023-05-19T09:00:29.877Z,0.77
2023-05-19T09:05:33.626Z,0.50
2023-05-19T09:10:36.387Z,0.70
2023-05-19T09:15:41.367Z,0.50
2023-05-19T09:25:52.173Z,0.40
2023-05-19T09:31:09.257Z,0.60
2023-05-19T09:36:12.616Z,1.02
2023-05-19T09:41:15.991Z,0.70
2023-05-19T09:46:18.528Z,0.45
2023-05-19T09:51:21.755Z,0.80
2023-05-19T09:56:26.290Z,0.70
2023-05-19T10:01:29.340Z,0.82
2023-05-19T10:06:32.877Z,0.70
2023-05-19T10:11:35.681Z,0.68
2023-05-19T10:16:42.380Z,0.80
2023-05-19T10:21:54.329Z,0.68
2023-05-19T10:27:14.526Z,0.50
2023-05-19T10:32:28.878Z,0.77
2023-05-19T10:37:50.306Z,0.50
2023-05-19T10:43:03.416Z,0.63
2023-05-19T10:48:10.409Z,0.73
2023-05-19T10:53:22.974Z,0.60
2023-05-19T10:58:46.461Z,0.63
2023-05-19T11:03:52.480Z,0.93
2023-05-19T11:09:07.961Z,0.50
2023-05-19T11:14:15.088Z,0.77
2023-05-19T11:19:30.609Z,0.60
2023-05-19T11:24:40.914Z,0.50
2023-05-19T11:29:44.113Z,0.43
2023-05-19T11:34:50.604Z,0.55
2023-05-19T11:39:54.097Z,0.40
2023-05-19T11:44:57.457Z,0.60
2023-05-19T11:50:00.699Z,0.50
2023-05-19T11:55:03.689Z,0.40
2023-05-19T12:00:09.265Z,0.47
2023-05-19T12:05:26.989Z,0.47
2023-05-19T12:10:31.727Z,0.40
2023-05-19T12:15:34.618Z,0.57
2023-05-19T12:20:38.014Z,1.55
2023-05-19T12:25:41.870Z,1.15
2023-05-19T12:30:52.988Z,1.20
2023-05-19T12:35:56.604Z,0.90
2023-05-19T12:41:05.479Z,0.65
2023-05-19T12:46:16.346Z,0.43
2023-05-19T12:51:21.633Z,0.45
2023-05-19T12:56:29.675Z,0.50
2023-05-19T13:01:32.229Z,0.30
2023-05-19T13:06:34.813Z,0.50
2023-05-19T13:11:38.021Z,0.50
2023-05-19T13:16:40.692Z,0.55
2023-05-19T13:21:44.272Z,0.50
2023-05-19T13:26:48.311Z,5.43
2023-05-19T13:31:51.478Z,0.98
2023-05-19T13:36:54.757Z,4.70
2023-05-19T13:41:59.540Z,0.60
2023-05-19T13:47:02.141Z,0.60
2023-05-19T13:52:07.520Z,0.98
2023-05-19T13:57:11.990Z,5.75
2023-05-19T14:02:15.235Z,1.37
2023-05-19T14:07:18.361Z,0.90
2023-05-19T14:12:27.583Z,0.50
2023-05-19T14:17:37.342Z,0.65
2023-05-19T14:22:40.890Z,0.75
2023-05-19T14:27:44.272Z,1.25
2023-05-19T14:32:47.257Z,0.63
2023-05-19T14:37:51.150Z,0.57
2023-05-19T14:42:54.185Z,0.60
2023-05-19T14:47:56.881Z,0.73
2023-05-19T14:52:59.715Z,0.70
2023-05-19T14:58:06.027Z,0.43
2023-05-19T15:03:13.381Z,0.60
2023-05-19T15:08:16.792Z,0.70
2023-05-19T15:13:21.928Z,0.60
2023-05-19T15:18:26.374Z,0.50
2023-05-19T15:23:29.582Z,0.60
2023-05-19T15:28:32.391Z,0.82
2023-05-19T15:33:34.867Z,1.23
2023-05-19T15:38:37.564Z,0.77
2023-05-19T15:43:41.475Z,1.00
2023-05-19T15:48:44.677Z,0.90
2023-05-19T15:53:47.518Z,0.90
2023-05-19T15:58:51.189Z,1.05
2023-05-19T16:03:54.302Z,0.80
2023-05-19T16:08:59.970Z,0.90
2023-05-19T16:14:02.569Z,1.50
2023-05-19T16:19:05.200Z,1.80
2023-05-19T16:24:33.170Z,1.33
2023-05-19T16:29:35.923Z,1.08
2023-05-19T16:34:38.464Z,2.88
2023-05-19T16:39:41.621Z,0.90
2023-05-19T16:44:44.211Z,0.88
2023-05-19T16:49:46.867Z,1.00
2023-05-19T16:54:49.503Z,0.88
2023-05-19T16:59:52.389Z,2.92
2023-05-19T17:04:55.548Z,1.00
2023-05-19T17:09:58.195Z,0.85
2023-05-19T17:15:00.859Z,0.80
2023-05-19T17:20:03.990Z,2.10
2023-05-19T17:25:07.763Z,1.80
2023-05-19T17:30:11.190Z,2.17
2023-05-19T17:35:14.105Z,2.15
2023-05-19T17:40:17.293Z,1.13
2023-05-19T17:45:20.203Z,1.08
2023-05-19T17:50:22.987Z,0.80
2023-05-19T17:55:31.300Z,1.27
2023-05-19T18:00:34.603Z,1.35
2023-05-19T18:05:39.323Z,0.82
2023-05-19T18:10:42.963Z,0.90
2023-05-19T18:15:45.603Z,0.85
2023-05-19T18:20:48.344Z,0.70
2023-05-19T18:25:53.522Z,0.85
2023-05-19T18:31:04.230Z,1.23
2023-05-19T18:36:07.934Z,0.80
2023-05-19T18:41:16.773Z,0.90
2023-05-19T18:46:19.622Z,0.70
2023-05-19T18:51:22.632Z,0.70
2023-05-19T18:56:31.204Z,1.27
2023-05-19T19:01:34.458Z,0.88
2023-05-19T19:06:38.095Z,1.20
2023-05-19T19:11:42.094Z,0.93
2023-05-19T19:16:44.855Z,0.80
2023-05-19T19:21:49.929Z,1.10
2023-05-19T19:31:56.585Z,2.80
2023-05-19T19:36:59.342Z,1.35
2023-05-19T19:42:02.468Z,0.70
2023-05-19T19:47:08.193Z,1.02
2023-05-19T19:52:11.366Z,2.25
2023-05-19T19:57:16.975Z,2.47
2023-05-19T20:02:19.840Z,2.42
2023-05-19T20:07:23.422Z,1.98
2023-05-19T20:12:26.606Z,2.72
2023-05-19T20:17:29.365Z,1.65
2023-05-19T20:22:31.975Z,1.15
2023-05-19T20:27:34.736Z,0.70
2023-05-19T20:32:40.222Z,1.83
2023-05-19T20:37:43.133Z,4.57
2023-05-19T20:42:46.458Z,2.08
2023-05-19T20:47:49.154Z,1.17
2023-05-19T20:52:52.493Z,0.82
2023-05-19T20:57:56.359Z,0.82
2023-05-19T21:03:00.190Z,0.95
2023-05-19T21:08:03.616Z,0.70
2023-05-19T21:13:06.644Z,0.90
2023-05-19T21:18:11.461Z,0.93
2023-05-19T21:23:14.352Z,0.98
2023-05-19T21:28:17.774Z,1.25
2023-05-19T21:33:21.459Z,0.60
2023-05-19T21:38:24.742Z,0.63
2023-05-19T21:43:28.818Z,0.75
2023-05-19T21:48:31.929Z,0.52
2023-05-19T21:53:43.104Z,0.90
2023-05-19T21:58:47.810Z,1.13
2023-05-19T22:03:52.775Z,0.70
2023-05-19T22:08:58.958Z,0.93
2023-05-19T22:14:01.910Z,1.52
2023-05-19T22:19:04.608Z,1.23
2023-05-19T22:24:07.325Z,1.00
2023-05-19T22:29:15.236Z,0.93
2023-05-19T22:34:18.439Z,1.08
2023-05-19T22:39:22.457Z,0.80
2023-05-19T22:44:25.118Z,1.63
2023-05-19T22:49:30.959Z,2.50
2023-05-19T22:54:33.496Z,1.42
2023-05-19T22:59:38.288Z,1.48
2023-05-19T23:04:41.078Z,1.30
2023-05-19T23:09:44.334Z,1.40
2023-05-19T23:14:50.369Z,1.38
2023-05-19T23:19:53.220Z,1.77
2023-05-19T23:24:55.875Z,1.27
2023-05-19T23:29:58.563Z,1.92
2023-05-19T23:35:33.507Z,1.52
2023-05-19T23:40:36.362Z,3.53
2023-05-19T23:45:39.203Z,2.80
2023-05-19T23:50:41.806Z,2.72
2023-05-19T23:55:47.855Z,3.40
